Time;durP1;ratioP1;P1;durP2;ratioP2;P2;SDS_P1;SDS_P2;PMS_P1;PMS_P2;Temp;Humidity;BMP_temperature;BMP_pressure;BME280_temperature;BME280_humidity;BME280_pressure;Samples;Min_cycle;Max_cycle;Signal;HPM_P1;HPM_P2
2021/09/02 00:00:05;;;;;;;4.50;3.60;;;13.60;99.90;;;;;;4125401;28;20026;-63
2021/09/02 00:02:06;;;;;;;7.63;4.40;;;13.60;99.90;;;;;;4124430;28;20487;-65
2021/09/02 00:04:07;;;;;;;6.63;4.23;;;13.60;99.90;;;;;;4125818;28;20042;-63
2021/09/02 00:06:09;;;;;;;8.83;4.63;;;13.60;99.90;;;;;;4123877;28;20096;-62
2021/09/02 00:08:10;;;;;;;5.13;3.70;;;13.50;99.90;;;;;;4125317;28;20037;-63
2021/09/02 00:10:12;;;;;;;5.43;3.80;;;13.50;99.90;;;;;;4124039;28;20123;-65
2021/09/02 00:12:14;;;;;;;5.60;4.10;;;13.50;99.90;;;;;;4125879;28;20038;-63
2021/09/02 00:14:15;;;;;;;8.97;4.17;;;13.50;99.90;;;;;;4124469;28;20364;-63
2021/09/02 00:16:16;;;;;;;6.17;4.13;;;13.50;99.90;;;;;;4125089;28;20053;-63
2021/09/02 00:18:17;;;;;;;6.37;4.67;;;13.50;99.90;;;;;;4124533;28;20085;-63
2021/09/02 00:20:20;;;;;;;5.60;4.17;;;13.50;99.90;;;;;;4123223;28;20108;-63
2021/09/02 00:22:22;;;;;;;7.27;4.20;;;13.50;99.90;;;;;;4124435;28;20438;-63
2021/09/02 00:24:23;;;;;;;8.80;4.23;;;13.40;99.90;;;;;;4124257;28;20089;-63
2021/09/02 00:26:24;;;;;;;6.77;4.37;;;13.40;99.90;;;;;;4124430;28;20030;-66
2021/09/02 00:28:25;;;;;;;6.37;4.30;;;13.40;99.90;;;;;;4138907;28;20045;-64
2021/09/02 00:30:26;;;;;;;7.70;5.10;;;13.40;99.90;;;;;;4124863;28;20119;-63
2021/09/02 00:32:27;;;;;;;8.90;5.10;;;13.30;99.90;;;;;;4124032;28;20034;-64
2021/09/02 00:34:28;;;;;;;8.43;5.00;;;13.30;99.90;;;;;;4125318;28;20061;-65
2021/09/02 00:36:30;;;;;;;6.93;5.27;;;13.30;99.90;;;;;;4123827;28;20042;-63
2021/09/02 00:38:32;;;;;;;9.60;5.13;;;13.30;99.90;;;;;;4125139;28;20038;-63
2021/09/02 00:40:33;;;;;;;8.37;4.37;;;13.20;99.90;;;;;;4138609;28;20050;-63
2021/09/02 00:42:34;;;;;;;8.77;4.30;;;13.20;99.90;;;;;;4123967;28;20081;-64
2021/09/02 00:44:40;;;;;;;15.10;4.93;;;13.20;99.90;;;;;;4124345;28;20442;-63
2021/09/02 00:46:41;;;;;;;6.20;4.87;;;13.20;99.90;;;;;;4124945;28;20092;-65
2021/09/02 00:48:45;;;;;;;12.03;4.60;;;13.20;99.90;;;;;;4123814;28;20041;-63
2021/09/02 00:50:48;;;;;;;8.80;5.03;;;13.20;99.90;;;;;;4139380;28;20050;-63
2021/09/02 00:52:49;;;;;;;8.63;4.93;;;13.10;99.90;;;;;;4123822;28;20026;-64
2021/09/02 00:54:56;;;;;;;6.97;4.43;;;13.10;99.90;;;;;;4124682;28;20860;-64
2021/09/02 00:56:57;;;;;;;11.83;4.93;;;13.10;99.90;;;;;;4123613;28;20024;-64
2021/09/02 00:58:58;;;;;;;10.13;4.90;;;13.10;99.90;;;;;;4124027;28;20116;-63
2021/09/02 01:00:59;;;;;;;8.90;5.17;;;13.10;99.90;;;;;;4124530;28;20541;-66
2021/09/02 01:03:00;;;;;;;7.83;5.47;;;13.10;99.90;;;;;;4123725;28;20031;-63
2021/09/02 01:05:03;;;;;;;7.73;4.60;;;13.10;99.90;;;;;;4127305;28;20030;-64
2021/09/02 01:07:05;;;;;;;6.47;4.83;;;13.10;99.90;;;;;;4127081;28;20045;-64
2021/09/02 01:09:06;;;;;;;9.33;4.90;;;13.10;99.90;;;;;;4128325;28;20449;-64
2021/09/02 01:11:07;;;;;;;8.97;5.60;;;13.10;99.90;;;;;;4126220;28;20046;-64
2021/09/02 01:13:08;;;;;;;10.57;4.83;;;13.10;99.90;;;;;;4127960;28;20085;-65
2021/09/02 01:15:19;;;;;;;9.53;5.07;;;13.10;99.90;;;;;;4127339;28;20034;-62
2021/09/02 01:17:24;;;;;;;7.82;5.10;;;13.10;99.90;;;;;;4128410;28;20037;-63
2021/09/02 01:19:25;;;;;;;7.63;5.30;;;13.10;99.90;;;;;;4126693;28;20085;-63
2021/09/02 01:21:26;;;;;;;11.13;5.60;;;13.00;99.90;;;;;;4127662;28;20098;-65
2021/09/02 01:23:27;;;;;;;7.17;5.13;;;13.10;99.90;;;;;;4126536;28;20085;-63
2021/09/02 01:25:32;;;;;;;7.93;4.90;;;13.10;99.90;;;;;;4128014;28;20038;-63
2021/09/02 01:27:34;;;;;;;8.50;5.37;;;13.10;99.90;;;;;;4126508;28;20080;-63
2021/09/02 01:29:35;;;;;;;7.63;5.07;;;13.20;99.90;;;;;;4127641;28;20038;-62
2021/09/02 01:31:36;;;;;;;11.63;5.30;;;13.10;99.90;;;;;;4126762;28;20038;-62
2021/09/02 01:33:45;;;;;;;8.33;4.87;;;13.10;99.90;;;;;;4127052;28;20026;-64
2021/09/02 01:35:46;;;;;;;7.33;4.90;;;13.10;99.90;;;;;;4126819;28;20049;-64
2021/09/02 01:37:52;;;;;;;7.90;4.50;;;13.10;99.90;;;;;;4126585;28;20026;-65
2021/09/02 01:39:53;;;;;;;7.57;5.17;;;13.10;99.90;;;;;;4126180;28;20038;-63
2021/09/02 01:41:54;;;;;;;8.73;5.60;;;13.10;99.90;;;;;;4126593;28;20080;-63
2021/09/02 01:43:55;;;;;;;7.87;4.93;;;13.10;99.90;;;;;;4127690;28;20487;-63
2021/09/02 01:45:58;;;;;;;7.10;4.67;;;13.10;99.90;;;;;;4126182;28;20030;-63
2021/09/02 01:48:00;;;;;;;8.67;5.23;;;13.10;99.90;;;;;;4127710;28;20117;-63
2021/09/02 01:50:21;;;;;;;8.77;4.57;;;13.10;99.90;;;;;;4126047;28;20050;-64
2021/09/02 01:52:22;;;;;;;7.45;4.50;;;13.00;99.90;;;;;;4127501;28;20116;-63
2021/09/02 01:54:23;;;;;;;8.80;5.30;;;13.00;99.90;;;;;;4125960;28;20042;-64
2021/09/02 01:56:24;;;;;;;8.33;5.07;;;13.00;99.90;;;;;;4127406;28;20030;-63
2021/09/02 01:58:26;;;;;;;8.37;5.23;;;13.00;99.90;;;;;;4125828;28;20050;-63
2021/09/02 02:00:27;;;;;;;11.43;5.40;;;12.90;99.90;;;;;;4127130;28;20050;-63
2021/09/02 02:02:28;;;;;;;7.00;4.93;;;12.90;99.90;;;;;;4125070;28;20097;-64
2021/09/02 02:04:29;;;;;;;9.47;4.97;;;12.90;99.90;;;;;;4127427;28;20430;-63
2021/09/02 02:06:30;;;;;;;8.77;5.10;;;12.90;99.90;;;;;;4125706;28;20077;-64
2021/09/02 02:08:31;;;;;;;7.60;5.00;;;12.90;99.90;;;;;;4126742;28;20422;-63
2021/09/02 02:10:33;;;;;;;8.30;4.87;;;12.90;99.90;;;;;;4126195;28;20117;-63
2021/09/02 02:12:34;;;;;;;10.10;5.23;;;12.90;99.90;;;;;;4126564;28;20034;-63
2021/09/02 02:14:36;;;;;;;7.97;5.53;;;12.90;99.90;;;;;;4126858;28;20030;-63
2021/09/02 02:16:37;;;;;;;9.13;5.13;;;12.90;99.90;;;;;;4124747;28;20080;-64
2021/09/02 02:18:38;;;;;;;9.20;5.17;;;12.90;99.90;;;;;;4127415;28;20105;-64
2021/09/02 02:20:40;;;;;;;10.03;5.43;;;12.90;99.90;;;;;;4125736;28;20038;-63
2021/09/02 02:22:42;;;;;;;6.40;5.00;;;12.90;99.90;;;;;;4127222;28;20837;-63
2021/09/02 02:24:43;;;;;;;12.27;5.67;;;12.80;99.90;;;;;;4126144;28;20061;-65
2021/09/02 02:26:44;;;;;;;8.73;4.70;;;12.80;99.90;;;;;;4126970;28;20030;-62
2021/09/02 02:28:46;;;;;;;7.80;4.80;;;12.80;99.90;;;;;;4125858;28;20034;-63
2021/09/02 02:30:47;;;;;;;8.33;5.53;;;12.80;99.90;;;;;;4126818;28;20038;-63
2021/09/02 02:32:48;;;;;;;7.30;4.60;;;12.80;99.90;;;;;;4125424;28;20159;-63
2021/09/02 02:34:49;;;;;;;7.67;5.47;;;12.80;99.90;;;;;;4126244;28;20042;-64
2021/09/02 02:36:51;;;;;;;9.70;5.37;;;12.80;99.90;;;;;;4125633;28;20043;-63
2021/09/02 02:38:52;;;;;;;8.40;5.60;;;12.80;99.90;;;;;;4126553;28;20043;-63
2021/09/02 02:40:53;;;;;;;6.57;4.90;;;12.70;99.90;;;;;;4125539;28;20425;-63
2021/09/02 02:42:54;;;;;;;8.87;5.43;;;12.70;99.90;;;;;;4126157;28;20467;-63
2021/09/02 02:44:55;;;;;;;9.37;5.07;;;12.70;99.90;;;;;;4126017;28;20547;-64
2021/09/02 02:46:56;;;;;;;10.80;5.27;;;12.70;99.90;;;;;;4125561;28;20081;-63
2021/09/02 02:48:58;;;;;;;10.23;5.27;;;12.70;99.90;;;;;;4126061;28;20820;-63
2021/09/02 02:50:59;;;;;;;9.07;5.17;;;12.70;99.90;;;;;;4125030;28;20038;-63
2021/09/02 02:53:00;;;;;;;20.57;5.97;;;12.70;99.90;;;;;;4126520;28;20046;-63
2021/09/02 02:55:01;;;;;;;7.90;5.30;;;12.60;99.90;;;;;;4125341;28;20038;-64
2021/09/02 02:57:03;;;;;;;7.50;5.83;;;12.60;99.90;;;;;;4126132;28;20030;-64
2021/09/02 02:59:04;;;;;;;7.90;5.50;;;12.60;99.90;;;;;;4125134;28;20054;-63
2021/09/02 03:01:05;;;;;;;7.17;5.20;;;12.60;99.90;;;;;;4126259;28;20046;-65
2021/09/02 03:03:06;;;;;;;7.67;5.27;;;12.60;99.90;;;;;;4125195;28;20034;-62
2021/09/02 03:05:08;;;;;;;11.80;5.23;;;12.60;99.90;;;;;;4126070;28;20092;-62
2021/09/02 03:07:09;;;;;;;8.57;5.60;;;12.70;99.90;;;;;;4125023;28;20369;-63
2021/09/02 03:09:10;;;;;;;11.23;6.07;;;12.60;99.90;;;;;;4124641;28;20046;-62
2021/09/02 03:11:12;;;;;;;13.63;5.73;;;12.70;99.90;;;;;;4125458;28;20849;-63
2021/09/02 03:13:13;;;;;;;7.27;5.27;;;12.70;99.90;;;;;;4125562;28;20080;-63
2021/09/02 03:15:15;;;;;;;11.10;6.20;;;12.70;99.90;;;;;;4125998;28;20014;-62
2021/09/02 03:17:16;;;;;;;10.27;5.87;;;12.70;99.90;;;;;;4125212;28;20034;-65
2021/09/02 03:19:17;;;;;;;9.53;6.03;;;12.70;99.90;;;;;;4125746;28;20438;-63
2021/09/02 03:21:18;;;;;;;7.77;5.67;;;12.70;99.90;;;;;;4124950;28;20046;-63
2021/09/02 03:23:19;;;;;;;8.50;5.97;;;12.80;99.90;;;;;;4126176;28;20372;-63
2021/09/02 03:25:21;;;;;;;8.97;6.10;;;12.80;99.90;;;;;;4124429;28;20088;-63
2021/09/02 03:27:22;;;;;;;8.90;5.50;;;12.80;99.90;;;;;;4125248;28;20033;-64
2021/09/02 03:29:23;;;;;;;9.73;6.00;;;12.80;99.90;;;;;;4124508;28;20426;-63
2021/09/02 03:31:24;;;;;;;10.70;5.97;;;12.80;99.90;;;;;;4124085;28;20084;-63
2021/09/02 03:33:25;;;;;;;7.13;5.13;;;12.80;99.90;;;;;;4124853;28;20093;-63
2021/09/02 03:35:27;;;;;;;8.43;5.77;;;12.80;99.90;;;;;;4125870;28;20042;-64
2021/09/02 03:37:28;;;;;;;8.23;5.07;;;12.80;99.90;;;;;;4124605;28;20026;-63
2021/09/02 03:39:29;;;;;;;8.40;6.07;;;12.80;99.90;;;;;;4125395;28;20443;-62
2021/09/02 03:41:31;;;;;;;9.03;6.50;;;12.80;99.90;;;;;;4124962;28;20081;-64
2021/09/02 03:43:32;;;;;;;8.60;5.80;;;12.80;99.90;;;;;;4124829;28;20093;-63
2021/09/02 03:45:33;;;;;;;8.40;5.63;;;12.80;99.90;;;;;;4125029;28;20035;-64
2021/09/02 03:47:35;;;;;;;9.77;5.60;;;12.90;99.90;;;;;;4124842;28;20707;-64
2021/09/02 03:49:36;;;;;;;10.47;6.17;;;12.90;99.90;;;;;;4125272;28;20792;-62
2021/09/02 03:51:37;;;;;;;10.33;6.43;;;12.90;99.90;;;;;;4124389;28;20100;-62
2021/09/02 03:53:39;;;;;;;9.57;6.00;;;12.90;99.90;;;;;;4125451;28;21073;-63
2021/09/02 03:55:40;;;;;;;7.63;5.70;;;12.90;99.90;;;;;;4123991;28;20084;-63
2021/09/02 03:57:41;;;;;;;9.03;5.83;;;12.90;99.90;;;;;;4123571;28;20038;-63
2021/09/02 03:59:42;;;;;;;8.20;6.07;;;12.90;99.90;;;;;;4123874;28;20085;-63
2021/09/02 04:01:43;;;;;;;9.53;6.17;;;12.90;99.90;;;;;;4124224;28;20100;-63
2021/09/02 04:03:44;;;;;;;11.23;6.00;;;13.10;99.90;;;;;;4124219;28;20454;-63
2021/09/02 04:05:45;;;;;;;11.83;6.17;;;13.30;99.90;;;;;;4125033;28;20042;-63
2021/09/02 04:07:46;;;;;;;9.53;5.27;;;13.50;99.90;;;;;;4124126;28;20573;-63
2021/09/02 04:09:48;;;;;;;9.03;5.97;;;13.80;99.90;;;;;;4125140;28;20042;-63
2021/09/02 04:11:49;;;;;;;11.80;5.13;;;14.00;99.90;;;;;;4123932;28;20825;-65
2021/09/02 04:13:50;;;;;;;8.93;5.63;;;14.30;99.90;;;;;;4124986;28;20084;-64
2021/09/02 04:15:51;;;;;;;9.83;5.27;;;14.50;99.90;;;;;;4124224;28;20088;-64
2021/09/02 04:17:52;;;;;;;6.20;4.97;;;14.70;99.90;;;;;;4124754;28;20042;-63
2021/09/02 04:19:53;;;;;;;7.83;5.27;;;14.90;99.90;;;;;;4124846;28;20065;-63
2021/09/02 04:21:54;;;;;;;6.77;4.70;;;15.20;99.90;;;;;;4123584;28;20030;-64
2021/09/02 04:23:55;;;;;;;9.18;4.43;;;15.60;99.90;;;;;;4124667;28;20030;-63
2021/09/02 04:25:57;;;;;;;9.07;4.40;;;15.80;99.90;;;;;;4123543;28;20085;-63
2021/09/02 04:27:58;;;;;;;9.38;5.20;;;15.90;99.90;;;;;;4124692;28;20565;-65
2021/09/02 04:29:59;;;;;;;8.20;4.85;;;16.10;99.90;;;;;;4122919;28;20034;-63
2021/09/02 04:32:00;;;;;;;7.82;4.88;;;16.10;99.90;;;;;;4124100;28;20507;-62
2021/09/02 04:34:01;;;;;;;5.55;4.03;;;15.80;99.90;;;;;;4123445;28;20561;-62
2021/09/02 04:36:02;;;;;;;6.18;4.78;;;15.70;99.90;;;;;;4124445;28;20065;-62
2021/09/02 04:38:04;;;;;;;6.25;4.00;;;15.30;99.90;;;;;;4123148;28;20030;-64
2021/09/02 04:40:07;;;;;;;5.43;4.20;;;14.90;99.90;;;;;;4126558;28;20043;-62
2021/09/02 04:42:09;;;;;;;9.15;4.63;;;14.60;99.90;;;;;;4126533;28;20486;-62
2021/09/02 04:44:11;;;;;;;8.73;4.13;;;14.30;99.90;;;;;;4127137;28;20030;-62
2021/09/02 04:46:12;;;;;;;10.27;4.57;;;14.10;99.90;;;;;;4126070;28;20050;-63
2021/09/02 04:48:18;;;;;;;6.60;4.43;;;13.90;99.90;;;;;;4126958;28;20089;-63
2021/09/02 04:50:19;;;;;;;6.53;4.20;;;13.80;99.90;;;;;;4127916;28;20122;-65
2021/09/02 04:52:24;;;;;;;5.37;4.20;;;13.70;99.90;;;;;;4121364;28;20034;-61
2021/09/02 04:54:27;;;;;;;6.43;4.47;;;13.70;99.90;;;;;;4116809;28;20540;-62
2021/09/02 04:56:28;;;;;;;9.03;4.80;;;13.60;99.90;;;;;;4104578;28;20046;-62
2021/09/02 04:58:29;;;;;;;8.23;4.67;;;13.60;99.90;;;;;;4126584;28;20092;-69
2021/09/02 05:00:30;;;;;;;7.90;4.60;;;13.50;99.90;;;;;;4124981;28;20039;-63
2021/09/02 05:02:32;;;;;;;7.90;5.07;;;13.50;99.90;;;;;;4126354;28;20094;-61
2021/09/02 05:04:33;;;;;;;6.67;4.17;;;13.50;99.90;;;;;;4124130;28;20148;-65
2021/09/02 05:06:34;;;;;;;7.10;4.90;;;13.50;99.90;;;;;;4121630;28;20050;-63
2021/09/02 05:08:36;;;;;;;8.73;5.33;;;13.40;99.90;;;;;;4125169;28;20081;-61
2021/09/02 05:10:38;;;;;;;10.17;5.07;;;13.40;99.90;;;;;;4126500;28;20038;-67
2021/09/02 05:12:39;;;;;;;9.77;5.17;;;13.40;99.90;;;;;;4124783;28;20031;-65
2021/09/02 05:14:40;;;;;;;10.43;4.57;;;13.40;99.90;;;;;;4124752;28;20063;-62
2021/09/02 05:16:41;;;;;;;7.93;5.63;;;13.40;99.90;;;;;;4120331;28;20112;-62
2021/09/02 05:18:42;;;;;;;13.77;5.73;;;13.40;99.90;;;;;;4125694;28;20721;-61
2021/09/02 05:20:43;;;;;;;9.50;5.07;;;13.40;99.90;;;;;;4125435;28;20038;-62
2021/09/02 05:22:44;;;;;;;13.30;4.90;;;13.50;99.90;;;;;;4126283;28;20101;-61
2021/09/02 05:24:46;;;;;;;6.93;4.47;;;13.50;99.90;;;;;;4127217;28;20418;-62
2021/09/02 05:26:47;;;;;;;7.60;5.23;;;13.50;99.90;;;;;;4126303;28;20307;-62
2021/09/02 05:28:48;;;;;;;10.30;4.87;;;13.60;99.90;;;;;;4127189;28;20483;-62
2021/09/02 05:30:49;;;;;;;5.33;4.57;;;13.70;99.90;;;;;;4125701;28;20026;-62
2021/09/02 05:32:51;;;;;;;9.67;5.27;;;13.70;99.90;;;;;;4127148;28;20101;-63
2021/09/02 05:34:52;;;;;;;7.00;4.73;;;13.70;99.90;;;;;;4126133;28;20924;-64
2021/09/02 05:36:54;;;;;;;8.17;4.47;;;13.80;99.90;;;;;;4127731;28;20056;-61
2021/09/02 05:38:55;;;;;;;10.67;4.93;;;13.80;99.90;;;;;;4126497;28;20026;-62
2021/09/02 05:40:56;;;;;;;7.37;5.40;;;13.80;99.90;;;;;;4127140;28;20474;-62
2021/09/02 05:42:57;;;;;;;7.63;5.53;;;13.90;99.90;;;;;;4125802;28;20030;-62
2021/09/02 05:44:58;;;;;;;7.47;4.90;;;13.90;99.90;;;;;;4126514;28;20976;-63
2021/09/02 05:46:59;;;;;;;7.80;4.87;;;14.00;99.90;;;;;;4126319;28;20384;-63
2021/09/02 05:49:01;;;;;;;7.67;5.10;;;14.00;99.90;;;;;;4126623;28;20092;-62
2021/09/02 05:51:02;;;;;;;7.13;4.80;;;14.10;99.90;;;;;;4125135;28;20510;-62
2021/09/02 05:53:03;;;;;;;11.93;5.40;;;14.10;99.90;;;;;;4126056;28;20077;-62
2021/09/02 05:55:04;;;;;;;9.13;5.47;;;14.10;99.90;;;;;;4126645;28;20089;-61
2021/09/02 05:57:06;;;;;;;8.43;5.10;;;14.20;99.90;;;;;;4125656;28;20360;-62
2021/09/02 05:59:07;;;;;;;8.87;5.17;;;14.60;99.90;;;;;;4127447;28;20063;-62
2021/09/02 06:01:08;;;;;;;9.97;4.83;;;14.90;99.90;;;;;;4123928;28;20105;-62
2021/09/02 06:03:09;;;;;;;5.83;4.40;;;15.00;99.90;;;;;;4126627;28;20081;-62
2021/09/02 06:05:10;;;;;;;8.70;5.63;;;15.20;99.90;;;;;;4126415;28;20034;-62
2021/09/02 06:07:12;;;;;;;8.60;5.33;;;15.20;99.90;;;;;;4126401;28;20077;-62
2021/09/02 06:09:13;;;;;;;7.70;4.80;;;15.50;99.90;;;;;;4125069;28;20469;-62
2021/09/02 06:11:14;;;;;;;6.15;4.40;;;15.70;99.90;;;;;;4126512;28;20084;-62
2021/09/02 06:13:15;;;;;;;12.27;5.82;;;15.90;99.90;;;;;;4125327;28;20076;-62
2021/09/02 06:15:16;;;;;;;8.65;4.93;;;16.20;99.90;;;;;;4126357;28;20485;-62
2021/09/02 06:17:17;;;;;;;6.00;4.20;;;16.50;99.90;;;;;;4125582;28;20089;-62
2021/09/02 06:19:19;;;;;;;5.00;3.95;;;16.60;99.90;;;;;;4125960;28;20042;-61
2021/09/02 06:21:20;;;;;;;6.95;3.80;;;16.80;99.90;;;;;;4126069;28;20542;-62
2021/09/02 06:23:21;;;;;;;5.55;4.40;;;17.00;99.90;;;;;;4125522;28;20027;-62
2021/09/02 06:25:23;;;;;;;9.23;4.20;;;17.30;99.90;;;;;;4126558;28;20032;-62
2021/09/02 06:27:24;;;;;;;6.82;3.40;;;17.50;99.90;;;;;;4125238;28;20199;-63
2021/09/02 06:29:25;;;;;;;8.57;4.40;;;17.70;99.90;;;;;;4126537;28;20085;-62
2021/09/02 06:31:26;;;;;;;3.72;3.20;;;17.60;99.90;;;;;;4125885;28;20852;-62
2021/09/02 06:33:27;;;;;;;6.30;3.38;;;17.70;99.90;;;;;;4126764;28;20042;-62
2021/09/02 06:35:29;;;;;;;3.70;3.20;;;17.60;99.90;;;;;;4125266;28;20034;-62
2021/09/02 06:37:30;;;;;;;7.88;3.38;;;17.60;99.90;;;;;;4127258;28;20178;-62
2021/09/02 06:39:31;;;;;;;5.32;3.33;;;17.70;99.90;;;;;;4125403;28;20026;-62
2021/09/02 06:41:32;;;;;;;3.60;3.05;;;17.90;99.90;;;;;;4126564;28;20038;-62
2021/09/02 06:43:33;;;;;;;5.20;3.33;;;18.20;99.90;;;;;;4124745;28;20545;-63
2021/09/02 06:45:34;;;;;;;8.02;3.22;;;17.90;99.90;;;;;;4125931;28;20034;-63
2021/09/02 06:47:40;;;;;;;3.95;3.33;;;18.10;99.90;;;;;;4125248;28;20430;-63
2021/09/02 06:49:41;;;;;;;6.15;3.10;;;18.00;99.90;;;;;;4125726;28;20034;-62
2021/09/02 06:51:42;;;;;;;7.05;3.00;;;18.00;99.90;;;;;;4125986;28;20108;-63
2021/09/02 06:53:43;;;;;;;4.38;2.83;;;18.00;99.90;;;;;;4125076;28;20068;-63
2021/09/02 06:55:44;;;;;;;7.00;3.20;;;18.10;99.90;;;;;;4125953;28;20043;-63
2021/09/02 06:57:45;;;;;;;4.43;2.92;;;18.10;99.90;;;;;;4124429;28;20022;-63
2021/09/02 06:59:47;;;;;;;4.78;2.78;;;18.10;99.90;;;;;;4125791;28;20038;-64
2021/09/02 07:01:48;;;;;;;4.97;2.65;;;18.10;99.90;;;;;;4125330;28;20147;-63
2021/09/02 07:03:50;;;;;;;5.38;2.38;;;18.00;99.90;;;;;;4125757;28;20386;-62
2021/09/02 07:05:51;;;;;;;6.85;2.60;;;18.10;99.90;;;;;;4124613;28;20084;-63
2021/09/02 07:07:54;;;;;;;10.55;2.75;;;18.10;99.90;;;;;;4126030;28;20097;-62
2021/09/02 07:09:55;;;;;;;4.65;2.45;;;18.20;99.90;;;;;;4124616;28;20089;-63
2021/09/02 07:11:58;;;;;;;7.78;2.60;;;18.50;99.90;;;;;;4125781;28;20093;-64
2021/09/02 07:13:59;;;;;;;5.05;3.00;;;18.70;99.90;;;;;;4124524;28;20446;-63
2021/09/02 07:16:00;;;;;;;4.82;3.88;;;18.80;99.90;;;;;;4125501;28;20541;-64
2021/09/02 07:18:02;;;;;;;3.85;2.35;;;18.70;99.90;;;;;;4125068;28;20030;-65
2021/09/02 07:20:04;;;;;;;5.63;3.03;;;18.70;99.90;;;;;;4125357;28;20113;-63
2021/09/02 07:22:05;;;;;;;7.75;2.60;;;18.60;99.90;;;;;;4125874;28;20821;-63
2021/09/02 07:24:06;;;;;;;4.65;2.63;;;18.30;99.90;;;;;;4124216;28;20034;-63
2021/09/02 07:26:07;;;;;;;4.28;2.63;;;18.30;99.90;;;;;;4125777;28;20050;-63
2021/09/02 07:28:09;;;;;;;4.35;2.75;;;18.50;99.90;;;;;;4124951;28;20101;-62
2021/09/02 07:30:10;;;;;;;4.80;1.95;;;18.40;99.90;;;;;;4125475;28;20045;-63
2021/09/02 07:32:11;;;;;;;4.05;2.17;;;18.60;99.90;;;;;;4124241;28;20042;-64
2021/09/02 07:34:13;;;;;;;3.65;2.45;;;18.50;99.90;;;;;;4125485;28;20557;-64
2021/09/02 07:36:14;;;;;;;4.03;2.58;;;18.40;99.90;;;;;;4124968;28;20085;-63
2021/09/02 07:38:15;;;;;;;2.92;2.38;;;18.50;99.90;;;;;;4125199;28;20089;-64
2021/09/02 07:40:16;;;;;;;4.93;3.00;;;18.50;99.90;;;;;;4124538;28;20101;-63
2021/09/02 07:42:18;;;;;;;3.85;2.08;;;18.60;99.90;;;;;;4125482;28;20429;-64
2021/09/02 07:44:19;;;;;;;5.28;2.97;;;18.70;99.90;;;;;;4124045;28;20569;-63
2021/09/02 07:46:20;;;;;;;4.90;2.05;;;18.90;99.90;;;;;;4124952;28;20115;-63
2021/09/02 07:48:21;;;;;;;2.67;2.22;;;19.00;99.90;;;;;;4124222;28;20058;-63
2021/09/02 07:50:22;;;;;;;4.53;2.40;;;19.00;99.90;;;;;;4124690;28;20076;-64
2021/09/02 07:52:23;;;;;;;4.95;2.38;;;19.00;99.90;;;;;;4125107;28;20877;-64
2021/09/02 07:54:24;;;;;;;7.75;2.63;;;19.00;99.90;;;;;;4124460;28;20022;-64
2021/09/02 07:56:26;;;;;;;3.35;2.17;;;19.20;99.90;;;;;;4125659;28;20046;-64
2021/09/02 07:58:27;;;;;;;3.95;3.05;;;19.10;99.90;;;;;;4123825;28;20069;-64
2021/09/02 08:00:28;;;;;;;4.30;2.10;;;19.00;99.90;;;;;;4124640;28;20085;-64
2021/09/02 08:02:29;;;;;;;4.03;2.50;;;19.00;99.90;;;;;;4123760;28;20307;-64
2021/09/02 08:04:30;;;;;;;6.18;2.58;;;18.90;99.90;;;;;;4125814;28;20546;-63
2021/09/02 08:06:31;;;;;;;3.28;2.20;;;18.90;99.90;;;;;;4123588;28;20043;-63
2021/09/02 08:08:33;;;;;;;4.35;2.00;;;18.90;99.90;;;;;;4125257;28;20034;-63
2021/09/02 08:10:34;;;;;;;4.97;2.40;;;18.80;99.90;;;;;;4123160;28;20364;-63
2021/09/02 08:12:35;;;;;;;2.67;2.00;;;18.80;99.90;;;;;;4124447;28;20108;-63
2021/09/02 08:14:36;;;;;;;5.50;1.90;;;18.80;99.90;;;;;;4123089;28;20034;-64
2021/09/02 08:16:37;;;;;;;4.47;2.78;;;18.90;99.90;;;;;;4124922;28;20105;-63
2021/09/02 08:18:38;;;;;;;7.97;2.35;;;18.80;99.90;;;;;;4123901;28;20030;-62
2021/09/02 08:20:40;;;;;;;5.40;2.25;;;18.80;99.90;;;;;;4124604;28;20035;-64
2021/09/02 08:22:41;;;;;;;6.03;1.95;;;18.80;99.90;;;;;;4124047;28;20034;-63
2021/09/02 08:24:42;;;;;;;3.22;1.40;;;18.80;99.90;;;;;;4123788;28;20073;-63
2021/09/02 08:26:43;;;;;;;4.88;2.08;;;18.80;99.90;;;;;;4124722;28;20088;-63
2021/09/02 08:28:45;;;;;;;2.15;1.77;;;18.70;99.90;;;;;;4123624;28;20140;-64
2021/09/02 08:30:46;;;;;;;3.10;2.50;;;18.70;99.90;;;;;;4124472;28;20038;-63
2021/09/02 08:32:48;;;;;;;4.72;2.33;;;18.70;99.90;;;;;;4123451;28;20085;-63
2021/09/02 08:34:49;;;;;;;4.10;1.98;;;18.70;99.90;;;;;;4125147;28;20089;-63
2021/09/02 08:36:51;;;;;;;5.13;1.92;;;18.60;99.90;;;;;;4123079;28;20109;-63
2021/09/02 08:38:52;;;;;;;6.22;2.03;;;18.50;99.90;;;;;;4124784;28;20041;-63
2021/09/02 08:40:54;;;;;;;8.48;2.10;;;18.50;99.90;;;;;;4123853;28;20566;-63
2021/09/02 08:42:56;;;;;;;2.42;1.83;;;18.40;99.90;;;;;;4124343;28;20027;-63
2021/09/02 08:44:57;;;;;;;3.72;1.90;;;18.30;99.90;;;;;;4123865;28;20093;-64
2021/09/02 08:46:59;;;;;;;5.78;1.77;;;18.30;99.90;;;;;;4124759;28;20081;-63
2021/09/02 08:49:02;;;;;;;4.47;1.73;;;18.20;99.90;;;;;;4122754;28;20388;-63
2021/09/02 08:51:04;;;;;;;2.92;1.88;;;18.20;99.90;;;;;;4123880;28;20472;-64
2021/09/02 08:53:07;;;;;;;6.95;1.90;;;18.10;99.90;;;;;;4123228;28;20085;-63
2021/09/02 08:55:10;;;;;;;4.15;1.80;;;18.00;99.90;;;;;;4138671;28;20089;-63
2021/09/02 08:57:11;;;;;;;4.30;2.10;;;17.90;99.90;;;;;;4123684;28;20018;-63
2021/09/02 08:59:12;;;;;;;3.70;2.03;;;17.90;99.90;;;;;;4123245;28;20392;-63
2021/09/02 09:01:13;;;;;;;3.13;2.00;;;17.90;99.90;;;;;;4123964;28;20140;-63
2021/09/02 09:03:18;;;;;;;3.70;2.15;;;18.00;99.90;;;;;;4138623;28;20108;-62
2021/09/02 09:05:19;;;;;;;3.47;2.50;;;18.00;99.90;;;;;;4124305;28;20387;-63
2021/09/02 09:07:28;;;;;;;2.22;1.80;;;18.00;99.90;;;;;;4123312;28;20039;-63
2021/09/02 09:09:29;;;;;;;4.47;1.83;;;18.20;99.90;;;;;;4124516;28;20100;-63
2021/09/02 09:11:30;;;;;;;7.50;2.00;;;18.40;99.90;;;;;;4123353;28;20034;-64
2021/09/02 09:13:31;;;;;;;4.25;1.85;;;18.60;99.90;;;;;;4124536;28;20153;-63
2021/09/02 09:15:44;;;;;;;3.50;1.70;;;18.80;99.90;;;;;;4123052;28;20048;-63
2021/09/02 09:17:47;;;;;;;11.32;2.05;;;19.00;99.90;;;;;;4124846;28;20050;-63
2021/09/02 09:19:54;;;;;;;3.88;1.80;;;18.80;99.90;;;;;;4123988;28;20438;-63
2021/09/02 09:21:59;;;;;;;3.80;2.00;;;18.90;99.90;;;;;;4124653;28;20030;-63
2021/09/02 09:24:04;;;;;;;3.75;1.80;;;18.80;99.90;;;;;;4123931;28;20046;-63
2021/09/02 09:26:11;;;;;;;3.33;1.67;;;18.70;99.90;;;;;;4126369;28;20430;-63
2021/09/02 09:28:12;;;;;;;4.30;2.05;;;18.60;99.90;;;;;;4126677;28;20042;-63
2021/09/02 09:30:17;;;;;;;2.47;1.60;;;18.50;99.90;;;;;;4126904;28;20027;-63
2021/09/02 09:32:18;;;;;;;5.80;1.85;;;18.50;99.90;;;;;;4126547;28;20572;-63
2021/09/02 09:34:19;;;;;;;4.88;2.35;;;18.50;99.90;;;;;;4126532;28;20042;-63
2021/09/02 09:36:25;;;;;;;2.53;1.70;;;18.50;99.90;;;;;;4126195;28;20085;-63
2021/09/02 09:38:26;;;;;;;2.13;1.90;;;18.50;99.90;;;;;;4126558;28;20030;-64
2021/09/02 09:40:28;;;;;;;3.25;2.05;;;18.50;99.90;;;;;;4127281;28;20145;-64
2021/09/02 09:42:29;;;;;;;4.45;2.13;;;18.60;99.90;;;;;;4126097;28;20034;-64
2021/09/02 09:44:30;;;;;;;2.25;2.00;;;18.50;99.90;;;;;;4125429;28;20084;-63
2021/09/02 09:46:31;;;;;;;5.68;2.80;;;18.20;99.90;;;;;;4125717;28;20046;-64
2021/09/02 09:48:35;;;;;;;3.83;2.17;;;18.10;99.90;;;;;;4125909;28;20042;-63
2021/09/02 09:50:36;;;;;;;2.90;1.98;;;18.10;99.90;;;;;;4125637;28;20026;-63
2021/09/02 09:52:41;;;;;;;4.50;1.92;;;18.10;99.90;;;;;;4127736;28;20054;-63
2021/09/02 09:54:42;;;;;;;3.70;2.45;;;18.00;99.90;;;;;;4125265;28;20114;-63
2021/09/02 09:56:45;;;;;;;3.33;2.05;;;17.90;99.90;;;;;;4127161;28;20046;-63
2021/09/02 09:58:48;;;;;;;4.72;1.80;;;17.80;99.90;;;;;;4125155;28;20105;-63
2021/09/02 10:00:54;;;;;;;3.83;1.60;;;17.90;99.90;;;;;;4126656;28;20823;-62
2021/09/02 10:02:55;;;;;;;3.47;2.17;;;17.90;99.90;;;;;;4125596;28;20085;-64
2021/09/02 10:04:57;;;;;;;2.58;1.40;;;17.80;99.90;;;;;;4126749;28;20090;-63
2021/09/02 10:06:58;;;;;;;2.10;1.40;;;17.90;99.90;;;;;;4125368;28;20022;-64
2021/09/02 10:09:00;;;;;;;3.70;1.83;;;17.90;99.90;;;;;;4127149;28;20042;-61
2021/09/02 10:11:03;;;;;;;3.75;2.05;;;17.90;99.90;;;;;;4125978;28;20022;-62
2021/09/02 10:13:05;;;;;;;4.85;1.80;;;18.00;99.90;;;;;;4126572;28;20054;-62
2021/09/02 10:15:09;;;;;;;3.38;1.75;;;18.00;99.90;;;;;;4126062;28;20034;-61
2021/09/02 10:17:10;;;;;;;5.40;1.60;;;18.00;99.90;;;;;;4125655;28;20764;-62
2021/09/02 10:19:11;;;;;;;4.57;2.28;;;17.90;99.90;;;;;;4126144;28;20032;-62
2021/09/02 10:21:14;;;;;;;4.68;1.85;;;17.90;99.90;;;;;;4124608;28;20096;-62
2021/09/02 10:23:25;;;;;;;3.20;1.95;;;17.90;99.90;;;;;;4125916;28;20482;-62
2021/09/02 10:25:32;;;;;;;3.30;2.55;;;17.90;99.90;;;;;;4125498;28;20018;-62
2021/09/02 10:27:35;;;;;;;5.03;2.17;;;17.90;99.90;;;;;;4126536;28;20034;-62
2021/09/02 10:29:39;;;;;;;4.68;2.00;;;17.80;99.90;;;;;;4125378;28;20093;-62
2021/09/02 10:31:41;;;;;;;3.05;1.92;;;17.80;99.90;;;;;;4127437;28;20046;-62